AirNav   Pilot Hours Calculator
 
 1158 users online  

UT10 Cedar Valley Airport
Eagle Mountain, Utah, USA

GOING TO EAGLE MOUNTAIN?


FAA INFORMATION EFFECTIVE 20 MAY 2021

Location

FAA Identifier: UT10
Lat/Long: 40-21-33.5600N 112-01-05.4900W
40-21.559333N 112-01.091500W
40.3593222,-112.0181917
(estimated)
Elevation: 5000 ft. / 1524 m (estimated)
Variation: 15E (1985)
From city: 3 miles N of EAGLE MOUNTAIN, UT
Time zone: UTC -6 (UTC -7 during Standard Time)
Zip code: 84043

Airport Operations

Airport use: Private use. Permission required prior to landing
Activation date: 06/1973
Control tower: no
ARTCC: SALT LAKE CITY CENTER
FSS: CEDAR CITY FLIGHT SERVICE STATION
Attendance: DAYLIGHT HOURS
Wind indicator: yes
Segmented circle: no

Airport Communications

WX AWOS-3 at U42 (16 nm N): 134.425 (801-562-0271)
WX AWOS-3PT at PVU (16 nm SE): 135.175 (801-373-9782)

Nearby radio navigation aids

VOR radial/distance  VOR name  Freq  Var
FFUr309/6.2FAIRFIELD VORTAC116.6016E
PVUr288/16.1PROVO VOR/DME108.4015E
TCHr167/29.5WASATCH VORTAC116.8016E

Airport Services

Runway Information

Runway 17/35

Dimensions: 5100 x 100 ft. / 1554 x 30 m
Surface: gravel
RUNWAY 17  RUNWAY 35
Traffic pattern: rightright

Airport Ownership and Management from official FAA records

Ownership: Privately-owned
Owner: LARRY PATTERSON
48 WEST 1010 NORTH
AMERICAN FORT, UT 84003
Phone (801) 636-8405
Manager: KENT PRICE
2344 VALLEY DRIVE
EAGLE MOUNTAIN, UT 84005
Phone (801) 554-0015

Airport Operational Statistics

Aircraft based on the field: 5
Single engine airplanes: 4
Multi engine airplanes: 1
    

Additional Remarks

GLIDER, POWERED PARACHUTING AND SKYDIVING ACTIVITY ON & INVOF ARPT.
FOR CD CTC SALT LAKE CITY APCH AT 801-325-9670.

Instrument Procedures

There are no published instrument procedures at UT10.

Some nearby airports with instrument procedures:

U42 - South Valley Regional Airport (16 nm N)
KPVU - Provo Municipal Airport (16 nm SE)
KSPK - Spanish Fork Municipal Airport/Woodhouse Field (21 nm SE)
KTVY - Bolinder Field-Tooele Valley Airport (21 nm NW)
KSLC - Salt Lake City International Airport (26 nm N)
 
Loc | Ops | Rwys | IFR | FBO | Links
Com | Nav | Svcs | Stats | Notes
Area around UT10 (Cedar Valley Airport)
 
Road maps at: MapQuest Bing Google
 
Aerial photo
WARNING: Photo may not be current or correct
Aerial photo of UT10 (Cedar Valley Airport)
Photo by Creighton King
Taken in November 2007
looking northeast

Do you have a better or more recent aerial photo of Cedar Valley Airport that you would like to share? If so, please send us your photo.

 
Sectional chart

 
Airport distance calculator
Flying to Cedar Valley Airport? Find the distance to fly.

From to UT10

Sunrise and sunset
Times for 13-Jun-2021
 Local
(UTC-6)
 Zulu
(UTC)
Morning civil twilight05:2511:25
Sunrise05:5811:58
Sunset20:5802:58
Evening civil twilight21:3103:31

Current date and time
Zulu (UTC)  13-Jun-2021 20:38:15
Local (UTC-6)  13-Jun-2021 14:38:15
 
METAR
KU42 
15nm N 
132015Z AUTO 16013G18KT 10SM CLR 36/11 A3000 RMK AO1 T03550105
KPVU 
16nm SE 
131956Z 28006KT 10SM CLR 29/10 A3001 RMK AO2 SLP107 T02890100
KSPK 
21nm SE 
132015Z AUTO VRB04KT 10SM CLR 32/04 A2999 RMK AO2
KTVY 
21nm NW 
132015Z AUTO 36012KT 10SM CLR 33/07 A2998 RMK AO2
KSLC 
26nm N 
131954Z 15007KT 10SM SCT250 36/M03 A2997 RMK AO2 SLP084 T03611028
KHCR 
28nm E 
132015Z AUTO 00000KT 10SM CLR 35/M05 A3006 RMK AO2
TAF
KPVU 
16nm SE 
131737Z 1318/1418 25009KT P6SM FEW250 FM140300 14009KT P6SM SKC
NOTAMs
Click for the latest NOTAMs
NOTAMs are issued by the DoD/FAA and will open in a separate window not controlled by AirNav.

 

 
 

Would you like to see your business listed on this page?

 If your business provides an interesting product or service to pilots, flight crews, aircraft, or users of the Cedar Valley Airport, you should consider listing it here.  To start the listing process, click on the button below
 
Add a business
 

Other Pages about Cedar Valley Airport

Update a link
 
Copyright © AirNav, LLC. All rights reserved. Privacy Policy  Contact